sensor_id;sensor_type;location;lat;lon;timestamp;P1;durP1;ratioP1;P2;durP2;ratioP2
76039;SDS011;64736;50.462;4.850;2022-11-15T00:00:25;17.45;;;11.73;;
76039;SDS011;64736;50.462;4.850;2022-11-15T00:02:54;17.25;;;11.60;;
76039;SDS011;64736;50.462;4.850;2022-11-15T00:07:46;16.35;;;10.55;;
76039;SDS011;64736;50.462;4.850;2022-11-15T00:10:12;19.98;;;11.63;;
76039;SDS011;64736;50.462;4.850;2022-11-15T00:12:38;17.98;;;11.00;;
76039;SDS011;64736;50.462;4.850;2022-11-15T00:15:03;16.73;;;11.23;;
76039;SDS011;64736;50.462;4.850;2022-11-15T00:17:29;19.83;;;11.43;;
76039;SDS011;64736;50.462;4.850;2022-11-15T00:19:55;17.10;;;11.70;;
76039;SDS011;64736;50.462;4.850;2022-11-15T00:22:21;17.90;;;12.23;;
76039;SDS011;64736;50.462;4.850;2022-11-15T00:24:47;16.35;;;10.95;;
76039;SDS011;64736;50.462;4.850;2022-11-15T00:27:12;16.15;;;11.05;;
76039;SDS011;64736;50.462;4.850;2022-11-15T00:29:38;17.83;;;11.88;;
76039;SDS011;64736;50.462;4.850;2022-11-15T00:32:11;19.13;;;11.82;;
76039;SDS011;64736;50.462;4.850;2022-11-15T00:34:37;16.63;;;11.30;;
76039;SDS011;64736;50.462;4.850;2022-11-15T00:37:02;17.20;;;10.98;;
76039;SDS011;64736;50.462;4.850;2022-11-15T00:39:28;19.77;;;11.82;;
76039;SDS011;64736;50.462;4.850;2022-11-15T00:41:54;18.40;;;11.57;;
76039;SDS011;64736;50.462;4.850;2022-11-15T00:44:20;18.23;;;11.45;;
76039;SDS011;64736;50.462;4.850;2022-11-15T00:46:46;17.85;;;11.27;;
76039;SDS011;64736;50.462;4.850;2022-11-15T00:49:11;16.38;;;11.15;;
76039;SDS011;64736;50.462;4.850;2022-11-15T00:51:37;17.02;;;10.80;;
76039;SDS011;64736;50.462;4.850;2022-11-15T00:54:03;16.45;;;10.35;;
76039;SDS011;64736;50.462;4.850;2022-11-15T00:56:29;15.75;;;10.63;;
76039;SDS011;64736;50.462;4.850;2022-11-15T00:58:54;16.52;;;10.88;;
76039;SDS011;64736;50.462;4.850;2022-11-15T01:01:20;15.50;;;10.68;;
76039;SDS011;64736;50.462;4.850;2022-11-15T01:03:46;16.77;;;10.15;;
76039;SDS011;64736;50.462;4.850;2022-11-15T01:06:11;17.15;;;10.20;;
76039;SDS011;64736;50.462;4.850;2022-11-15T01:08:38;19.65;;;11.38;;
76039;SDS011;64736;50.462;4.850;2022-11-15T01:11:11;15.38;;;10.38;;
76039;SDS011;64736;50.462;4.850;2022-11-15T01:13:38;14.60;;;9.60;;
76039;SDS011;64736;50.462;4.850;2022-11-15T01:18:39;18.15;;;10.25;;
76039;SDS011;64736;50.462;4.850;2022-11-15T01:21:06;13.90;;;10.05;;
76039;SDS011;64736;50.462;4.850;2022-11-15T01:23:33;13.63;;;9.82;;
76039;SDS011;64736;50.462;4.850;2022-11-15T01:26:02;13.23;;;8.68;;
76039;SDS011;64736;50.462;4.850;2022-11-15T01:28:33;15.07;;;9.15;;
76039;SDS011;64736;50.462;4.850;2022-11-15T01:31:01;17.20;;;10.45;;
76039;SDS011;64736;50.462;4.850;2022-11-15T01:33:28;13.38;;;9.30;;
76039;SDS011;64736;50.462;4.850;2022-11-15T01:35:54;14.77;;;9.45;;
76039;SDS011;64736;50.462;4.850;2022-11-15T01:38:21;14.32;;;9.15;;
76039;SDS011;64736;50.462;4.850;2022-11-15T01:40:47;13.18;;;9.23;;
76039;SDS011;64736;50.462;4.850;2022-11-15T01:43:20;13.27;;;9.32;;
76039;SDS011;64736;50.462;4.850;2022-11-15T01:48:46;13.57;;;9.15;;
76039;SDS011;64736;50.462;4.850;2022-11-15T01:51:12;12.85;;;9.35;;
76039;SDS011;64736;50.462;4.850;2022-11-15T01:53:41;14.43;;;9.75;;
76039;SDS011;64736;50.462;4.850;2022-11-15T01:56:17;14.48;;;8.80;;
76039;SDS011;64736;50.462;4.850;2022-11-15T01:58:48;13.98;;;8.80;;
76039;SDS011;64736;50.462;4.850;2022-11-15T02:01:16;12.30;;;8.27;;
76039;SDS011;64736;50.462;4.850;2022-11-15T02:03:46;14.48;;;8.80;;
76039;SDS011;64736;50.462;4.850;2022-11-15T02:06:22;14.73;;;9.38;;
76039;SDS011;64736;50.462;4.850;2022-11-15T02:08:48;11.82;;;8.05;;
76039;SDS011;64736;50.462;4.850;2022-11-15T02:11:15;15.32;;;8.70;;
76039;SDS011;64736;50.462;4.850;2022-11-15T02:13:41;14.82;;;9.77;;
76039;SDS011;64736;50.462;4.850;2022-11-15T02:19:00;13.68;;;8.73;;
76039;SDS011;64736;50.462;4.850;2022-11-15T02:21:49;13.00;;;8.40;;
76039;SDS011;64736;50.462;4.850;2022-11-15T02:33:42;12.45;;;8.80;;
76039;SDS011;64736;50.462;4.850;2022-11-15T02:36:00;12.07;;;8.55;;
76039;SDS011;64736;50.462;4.850;2022-11-15T02:41:22;11.65;;;8.23;;
76039;SDS011;64736;50.462;4.850;2022-11-15T02:43:56;12.32;;;8.10;;
76039;SDS011;64736;50.462;4.850;2022-11-15T02:49:34;14.85;;;9.40;;
76039;SDS011;64736;50.462;4.850;2022-11-15T02:52:00;12.65;;;9.15;;
76039;SDS011;64736;50.462;4.850;2022-11-15T02:54:28;16.30;;;8.32;;
76039;SDS011;64736;50.462;4.850;2022-11-15T02:57:01;11.75;;;8.23;;
76039;SDS011;64736;50.462;4.850;2022-11-15T03:16:21;12.45;;;8.95;;
76039;SDS011;64736;50.462;4.850;2022-11-15T03:19:15;12.55;;;7.78;;
76039;SDS011;64736;50.462;4.850;2022-11-15T03:21:46;14.05;;;8.93;;
76039;SDS011;64736;50.462;4.850;2022-11-15T03:24:13;13.13;;;9.05;;
76039;SDS011;64736;50.462;4.850;2022-11-15T03:26:42;12.95;;;8.88;;
76039;SDS011;64736;50.462;4.850;2022-11-15T03:29:13;14.93;;;8.32;;
76039;SDS011;64736;50.462;4.850;2022-11-15T03:31:49;11.40;;;7.32;;
76039;SDS011;64736;50.462;4.850;2022-11-15T03:34:28;8.50;;;5.07;;
76039;SDS011;64736;50.462;4.850;2022-11-15T03:36:59;9.50;;;5.22;;
76039;SDS011;64736;50.462;4.850;2022-11-15T03:39:25;8.05;;;5.70;;
76039;SDS011;64736;50.462;4.850;2022-11-15T03:50:13;5.88;;;2.00;;
76039;SDS011;64736;50.462;4.850;2022-11-15T03:52:42;5.38;;;2.08;;
76039;SDS011;64736;50.462;4.850;2022-11-15T03:55:12;4.38;;;2.05;;
76039;SDS011;64736;50.462;4.850;2022-11-15T03:57:40;4.78;;;1.58;;
76039;SDS011;64736;50.462;4.850;2022-11-15T04:00:06;4.20;;;1.50;;
76039;SDS011;64736;50.462;4.850;2022-11-15T04:02:32;3.60;;;1.58;;
76039;SDS011;64736;50.462;4.850;2022-11-15T04:04:58;4.53;;;1.60;;
76039;SDS011;64736;50.462;4.850;2022-11-15T04:07:23;3.60;;;1.30;;
76039;SDS011;64736;50.462;4.850;2022-11-15T04:09:49;4.53;;;1.73;;
76039;SDS011;64736;50.462;4.850;2022-11-15T04:12:35;4.68;;;2.08;;
76039;SDS011;64736;50.462;4.850;2022-11-15T04:15:07;6.93;;;2.70;;
76039;SDS011;64736;50.462;4.850;2022-11-15T04:17:35;5.03;;;2.80;;
76039;SDS011;64736;50.462;4.850;2022-11-15T04:20:39;6.93;;;2.80;;
76039;SDS011;64736;50.462;4.850;2022-11-15T04:23:17;6.32;;;2.85;;
76039;SDS011;64736;50.462;4.850;2022-11-15T04:26:12;6.70;;;3.45;;
76039;SDS011;64736;50.462;4.850;2022-11-15T04:28:41;7.40;;;3.30;;
76039;SDS011;64736;50.462;4.850;2022-11-15T04:31:26;7.50;;;3.25;;
76039;SDS011;64736;50.462;4.850;2022-11-15T04:33:52;5.90;;;3.20;;
76039;SDS011;64736;50.462;4.850;2022-11-15T04:36:18;6.25;;;3.47;;
76039;SDS011;64736;50.462;4.850;2022-11-15T04:39:05;6.07;;;3.72;;
76039;SDS011;64736;50.462;4.850;2022-11-15T04:41:31;7.05;;;4.00;;
76039;SDS011;64736;50.462;4.850;2022-11-15T04:43:56;6.72;;;4.60;;
76039;SDS011;64736;50.462;4.850;2022-11-15T04:46:22;7.57;;;3.70;;
76039;SDS011;64736;50.462;4.850;2022-11-15T04:48:49;7.65;;;3.70;;
76039;SDS011;64736;50.462;4.850;2022-11-15T04:51:15;7.00;;;4.07;;
76039;SDS011;64736;50.462;4.850;2022-11-15T04:53:41;8.13;;;3.80;;
76039;SDS011;64736;50.462;4.850;2022-11-15T04:56:07;10.18;;;5.18;;
76039;SDS011;64736;50.462;4.850;2022-11-15T04:58:33;8.35;;;4.47;;
76039;SDS011;64736;50.462;4.850;2022-11-15T05:01:05;7.68;;;4.60;;
76039;SDS011;64736;50.462;4.850;2022-11-15T05:03:33;8.73;;;5.20;;
76039;SDS011;64736;50.462;4.850;2022-11-15T05:06:17;11.82;;;5.47;;
76039;SDS011;64736;50.462;4.850;2022-11-15T05:08:42;8.65;;;5.10;;
76039;SDS011;64736;50.462;4.850;2022-11-15T05:11:08;8.65;;;4.75;;
76039;SDS011;64736;50.462;4.850;2022-11-15T05:13:34;9.27;;;4.57;;
76039;SDS011;64736;50.462;4.850;2022-11-15T05:15:59;10.65;;;5.00;;
76039;SDS011;64736;50.462;4.850;2022-11-15T05:18:25;8.75;;;4.75;;
76039;SDS011;64736;50.462;4.850;2022-11-15T05:20:51;8.10;;;4.60;;
76039;SDS011;64736;50.462;4.850;2022-11-15T05:23:16;8.35;;;4.85;;
76039;SDS011;64736;50.462;4.850;2022-11-15T05:25:42;7.18;;;4.28;;
76039;SDS011;64736;50.462;4.850;2022-11-15T05:28:08;9.02;;;5.38;;
76039;SDS011;64736;50.462;4.850;2022-11-15T05:30:33;6.70;;;3.97;;
76039;SDS011;64736;50.462;4.850;2022-11-15T05:32:59;8.95;;;4.40;;
76039;SDS011;64736;50.462;4.850;2022-11-15T05:35:35;8.73;;;5.00;;
76039;SDS011;64736;50.462;4.850;2022-11-15T05:38:07;8.68;;;5.18;;
76039;SDS011;64736;50.462;4.850;2022-11-15T05:40:32;7.28;;;4.10;;
76039;SDS011;64736;50.462;4.850;2022-11-15T05:42:59;10.95;;;6.07;;
76039;SDS011;64736;50.462;4.850;2022-11-15T05:45:27;8.52;;;5.18;;
76039;SDS011;64736;50.462;4.850;2022-11-15T05:47:53;9.20;;;4.90;;
76039;SDS011;64736;50.462;4.850;2022-11-15T05:50:22;11.15;;;5.90;;
76039;SDS011;64736;50.462;4.850;2022-11-15T05:52:48;9.05;;;4.80;;
76039;SDS011;64736;50.462;4.850;2022-11-15T05:55:14;11.35;;;5.03;;
76039;SDS011;64736;50.462;4.850;2022-11-15T05:57:40;10.73;;;5.28;;
76039;SDS011;64736;50.462;4.850;2022-11-15T06:00:06;10.32;;;5.22;;
76039;SDS011;64736;50.462;4.850;2022-11-15T06:02:34;8.98;;;4.90;;
76039;SDS011;64736;50.462;4.850;2022-11-15T06:05:00;8.75;;;5.30;;
76039;SDS011;64736;50.462;4.850;2022-11-15T06:07:25;8.60;;;5.03;;
76039;SDS011;64736;50.462;4.850;2022-11-15T06:09:51;8.98;;;5.32;;
76039;SDS011;64736;50.462;4.850;2022-11-15T06:12:17;23.58;;;10.70;;
76039;SDS011;64736;50.462;4.850;2022-11-15T06:14:42;10.30;;;6.07;;
76039;SDS011;64736;50.462;4.850;2022-11-15T06:17:08;11.00;;;7.03;;
76039;SDS011;64736;50.462;4.850;2022-11-15T06:19:34;9.95;;;5.40;;
76039;SDS011;64736;50.462;4.850;2022-11-15T06:21:59;8.02;;;4.72;;
76039;SDS011;64736;50.462;4.850;2022-11-15T06:24:25;9.20;;;5.35;;
76039;SDS011;64736;50.462;4.850;2022-11-15T06:26:51;8.70;;;4.82;;
76039;SDS011;64736;50.462;4.850;2022-11-15T06:29:17;6.97;;;4.05;;
76039;SDS011;64736;50.462;4.850;2022-11-15T06:31:42;9.68;;;4.18;;
76039;SDS011;64736;50.462;4.850;2022-11-15T06:34:08;7.47;;;3.72;;
76039;SDS011;64736;50.462;4.850;2022-11-15T06:36:34;5.97;;;3.72;;
76039;SDS011;64736;50.462;4.850;2022-11-15T06:39:02;6.60;;;4.18;;
76039;SDS011;64736;50.462;4.850;2022-11-15T06:41:33;7.65;;;4.22;;
76039;SDS011;64736;50.462;4.850;2022-11-15T06:44:00;6.75;;;3.65;;
76039;SDS011;64736;50.462;4.850;2022-11-15T06:46:26;9.43;;;3.75;;
76039;SDS011;64736;50.462;4.850;2022-11-15T06:48:52;6.80;;;4.00;;
76039;SDS011;64736;50.462;4.850;2022-11-15T06:51:19;8.88;;;4.28;;
76039;SDS011;64736;50.462;4.850;2022-11-15T06:53:45;7.45;;;4.38;;
76039;SDS011;64736;50.462;4.850;2022-11-15T06:56:11;11.00;;;5.03;;
76039;SDS011;64736;50.462;4.850;2022-11-15T06:58:37;7.45;;;3.55;;
76039;SDS011;64736;50.462;4.850;2022-11-15T07:01:04;7.53;;;4.20;;
76039;SDS011;64736;50.462;4.850;2022-11-15T07:03:37;6.47;;;3.22;;
76039;SDS011;64736;50.462;4.850;2022-11-15T07:06:04;7.05;;;4.28;;
76039;SDS011;64736;50.462;4.850;2022-11-15T07:08:30;7.20;;;3.90;;
76039;SDS011;64736;50.462;4.850;2022-11-15T07:10:59;7.85;;;4.00;;
76039;SDS011;64736;50.462;4.850;2022-11-15T07:13:30;7.38;;;3.60;;
76039;SDS011;64736;50.462;4.850;2022-11-15T07:16:07;9.73;;;3.42;;
76039;SDS011;64736;50.462;4.850;2022-11-15T07:18:38;6.35;;;3.35;;
76039;SDS011;64736;50.462;4.850;2022-11-15T07:21:06;6.85;;;2.97;;
76039;SDS011;64736;50.462;4.850;2022-11-15T07:23:35;6.43;;;3.45;;
76039;SDS011;64736;50.462;4.850;2022-11-15T07:26:03;6.28;;;3.53;;
76039;SDS011;64736;50.462;4.850;2022-11-15T07:28:29;8.15;;;2.70;;
76039;SDS011;64736;50.462;4.850;2022-11-15T07:30:55;5.57;;;2.90;;
76039;SDS011;64736;50.462;4.850;2022-11-15T07:33:21;7.22;;;2.83;;
76039;SDS011;64736;50.462;4.850;2022-11-15T07:35:46;7.68;;;2.90;;
76039;SDS011;64736;50.462;4.850;2022-11-15T07:38:16;5.20;;;2.53;;
76039;SDS011;64736;50.462;4.850;2022-11-15T07:40:46;5.65;;;2.45;;
76039;SDS011;64736;50.462;4.850;2022-11-15T07:43:12;6.30;;;2.83;;
76039;SDS011;64736;50.462;4.850;2022-11-15T07:45:42;7.30;;;4.70;;
76039;SDS011;64736;50.462;4.850;2022-11-15T07:48:09;7.05;;;3.78;;
76039;SDS011;64736;50.462;4.850;2022-11-15T07:50:35;5.93;;;2.70;;
76039;SDS011;64736;50.462;4.850;2022-11-15T07:53:00;8.02;;;2.97;;
76039;SDS011;64736;50.462;4.850;2022-11-15T07:55:27;10.02;;;4.82;;
76039;SDS011;64736;50.462;4.850;2022-11-15T07:58:01;7.28;;;2.75;;
76039;SDS011;64736;50.462;4.850;2022-11-15T08:00:28;7.28;;;3.42;;
76039;SDS011;64736;50.462;4.850;2022-11-15T08:03:00;6.25;;;3.08;;
76039;SDS011;64736;50.462;4.850;2022-11-15T08:05:31;12.82;;;3.78;;
76039;SDS011;64736;50.462;4.850;2022-11-15T08:07:57;9.02;;;2.88;;
76039;SDS011;64736;50.462;4.850;2022-11-15T08:10:24;6.10;;;3.10;;
76039;SDS011;64736;50.462;4.850;2022-11-15T08:13:00;7.97;;;4.63;;
76039;SDS011;64736;50.462;4.850;2022-11-15T08:15:27;8.65;;;5.32;;
76039;SDS011;64736;50.462;4.850;2022-11-15T08:17:56;9.75;;;5.75;;
76039;SDS011;64736;50.462;4.850;2022-11-15T08:20:23;8.23;;;3.13;;
76039;SDS011;64736;50.462;4.850;2022-11-15T08:22:52;7.63;;;3.00;;
76039;SDS011;64736;50.462;4.850;2022-11-15T08:25:18;6.13;;;3.10;;
76039;SDS011;64736;50.462;4.850;2022-11-15T08:27:43;9.90;;;3.83;;
76039;SDS011;64736;50.462;4.850;2022-11-15T08:30:09;5.07;;;2.67;;
76039;SDS011;64736;50.462;4.850;2022-11-15T08:32:36;5.80;;;2.15;;
76039;SDS011;64736;50.462;4.850;2022-11-15T08:35:02;4.97;;;2.28;;
76039;SDS011;64736;50.462;4.850;2022-11-15T08:37:28;4.70;;;2.15;;
76039;SDS011;64736;50.462;4.850;2022-11-15T08:39:54;5.07;;;2.50;;
76039;SDS011;64736;50.462;4.850;2022-11-15T08:42:19;7.80;;;2.60;;
76039;SDS011;64736;50.462;4.850;2022-11-15T08:44:45;5.95;;;3.45;;
76039;SDS011;64736;50.462;4.850;2022-11-15T08:47:11;7.15;;;3.88;;
76039;SDS011;64736;50.462;4.850;2022-11-15T08:49:38;4.20;;;2.20;;
76039;SDS011;64736;50.462;4.850;2022-11-15T08:52:04;5.28;;;1.75;;
76039;SDS011;64736;50.462;4.850;2022-11-15T08:54:30;6.20;;;2.22;;
76039;SDS011;64736;50.462;4.850;2022-11-15T08:56:56;5.40;;;1.90;;
76039;SDS011;64736;50.462;4.850;2022-11-15T08:59:22;4.78;;;2.20;;
76039;SDS011;64736;50.462;4.850;2022-11-15T09:01:48;5.07;;;1.90;;
76039;SDS011;64736;50.462;4.850;2022-11-15T09:04:13;4.07;;;2.05;;
76039;SDS011;64736;50.462;4.850;2022-11-15T09:06:39;4.10;;;1.80;;
76039;SDS011;64736;50.462;4.850;2022-11-15T09:09:05;7.72;;;2.30;;
76039;SDS011;64736;50.462;4.850;2022-11-15T09:11:30;5.85;;;2.10;;
76039;SDS011;64736;50.462;4.850;2022-11-15T09:13:56;8.30;;;2.20;;
76039;SDS011;64736;50.462;4.850;2022-11-15T09:16:22;8.15;;;2.30;;
76039;SDS011;64736;50.462;4.850;2022-11-15T09:18:47;5.82;;;1.98;;
76039;SDS011;64736;50.462;4.850;2022-11-15T09:21:13;5.18;;;1.85;;
76039;SDS011;64736;50.462;4.850;2022-11-15T09:23:39;4.93;;;1.88;;
76039;SDS011;64736;50.462;4.850;2022-11-15T09:26:05;4.68;;;1.95;;
76039;SDS011;64736;50.462;4.850;2022-11-15T09:28:32;5.43;;;2.42;;
76039;SDS011;64736;50.462;4.850;2022-11-15T09:33:25;6.85;;;2.05;;
76039;SDS011;64736;50.462;4.850;2022-11-15T09:35:52;5.53;;;2.55;;
76039;SDS011;64736;50.462;4.850;2022-11-15T09:38:17;6.05;;;2.13;;
76039;SDS011;64736;50.462;4.850;2022-11-15T09:40:43;6.85;;;1.98;;
76039;SDS011;64736;50.462;4.850;2022-11-15T09:49:00;4.82;;;1.83;;
76039;SDS011;64736;50.462;4.850;2022-11-15T09:53:57;8.73;;;2.15;;
76039;SDS011;64736;50.462;4.850;2022-11-15T09:56:42;6.93;;;1.88;;
76039;SDS011;64736;50.462;4.850;2022-11-15T10:04:46;6.40;;;1.55;;
76039;SDS011;64736;50.462;4.850;2022-11-15T10:09:56;5.50;;;2.00;;
76039;SDS011;64736;50.462;4.850;2022-11-15T10:12:29;5.13;;;1.48;;
76039;SDS011;64736;50.462;4.850;2022-11-15T10:15:04;4.95;;;1.83;;
76039;SDS011;64736;50.462;4.850;2022-11-15T10:17:40;4.40;;;1.35;;
76039;SDS011;64736;50.462;4.850;2022-11-15T10:25:38;2.83;;;1.15;;
76039;SDS011;64736;50.462;4.850;2022-11-15T10:28:14;5.35;;;2.63;;
76039;SDS011;64736;50.462;4.850;2022-11-15T10:30:57;3.83;;;1.50;;
76039;SDS011;64736;50.462;4.850;2022-11-15T10:36:13;5.07;;;1.50;;
76039;SDS011;64736;50.462;4.850;2022-11-15T10:41:14;3.53;;;1.20;;
76039;SDS011;64736;50.462;4.850;2022-11-15T10:46:32;5.25;;;1.50;;
76039;SDS011;64736;50.462;4.850;2022-11-15T10:51:50;5.70;;;1.48;;
76039;SDS011;64736;50.462;4.850;2022-11-15T10:54:35;4.05;;;1.10;;
76039;SDS011;64736;50.462;4.850;2022-11-15T10:57:13;3.88;;;1.40;;
76039;SDS011;64736;50.462;4.850;2022-11-15T10:59:42;2.92;;;0.93;;
76039;SDS011;64736;50.462;4.850;2022-11-15T11:02:31;5.95;;;1.65;;
76039;SDS011;64736;50.462;4.850;2022-11-15T11:05:06;4.03;;;1.20;;
76039;SDS011;64736;50.462;4.850;2022-11-15T11:07:55;5.68;;;1.25;;
76039;SDS011;64736;50.462;4.850;2022-11-15T11:10:28;4.22;;;1.30;;
76039;SDS011;64736;50.462;4.850;2022-11-15T11:12:54;2.70;;;1.05;;
76039;SDS011;64736;50.462;4.850;2022-11-15T11:15:20;4.50;;;1.30;;
76039;SDS011;64736;50.462;4.850;2022-11-15T11:18:15;4.20;;;1.40;;
76039;SDS011;64736;50.462;4.850;2022-11-15T11:21:04;3.22;;;1.52;;
76039;SDS011;64736;50.462;4.850;2022-11-15T11:23:44;2.03;;;0.80;;
76039;SDS011;64736;50.462;4.850;2022-11-15T11:41:43;3.40;;;1.05;;
76039;SDS011;64736;50.462;4.850;2022-11-15T11:43:59;3.58;;;1.10;;
76039;SDS011;64736;50.462;4.850;2022-11-15T11:49:32;5.03;;;1.73;;
76039;SDS011;64736;50.462;4.850;2022-11-15T11:52:41;3.97;;;1.48;;
76039;SDS011;64736;50.462;4.850;2022-11-15T11:55:42;2.90;;;1.25;;
76039;SDS011;64736;50.462;4.850;2022-11-15T12:00:51;4.93;;;1.60;;
76039;SDS011;64736;50.462;4.850;2022-11-15T12:03:34;3.90;;;1.42;;
76039;SDS011;64736;50.462;4.850;2022-11-15T12:06:06;5.25;;;1.30;;
76039;SDS011;64736;50.462;4.850;2022-11-15T12:11:35;2.97;;;1.20;;
76039;SDS011;64736;50.462;4.850;2022-11-15T12:14:26;5.28;;;1.63;;
76039;SDS011;64736;50.462;4.850;2022-11-15T12:16:57;4.47;;;1.40;;
76039;SDS011;64736;50.462;4.850;2022-11-15T12:19:23;6.15;;;1.38;;
76039;SDS011;64736;50.462;4.850;2022-11-15T12:21:53;3.85;;;1.35;;
76039;SDS011;64736;50.462;4.850;2022-11-15T12:29:49;5.60;;;1.45;;
76039;SDS011;64736;50.462;4.850;2022-11-15T12:35:03;3.75;;;1.25;;
76039;SDS011;64736;50.462;4.850;2022-11-15T12:37:49;5.88;;;1.55;;
76039;SDS011;64736;50.462;4.850;2022-11-15T12:40:17;4.13;;;1.42;;
76039;SDS011;64736;50.462;4.850;2022-11-15T12:43:36;5.07;;;1.50;;
76039;SDS011;64736;50.462;4.850;2022-11-15T12:46:00;6.47;;;1.42;;
76039;SDS011;64736;50.462;4.850;2022-11-15T12:51:00;4.38;;;1.20;;
76039;SDS011;64736;50.462;4.850;2022-11-15T12:53:27;5.00;;;1.30;;
76039;SDS011;64736;50.462;4.850;2022-11-15T13:09:57;3.50;;;1.40;;
76039;SDS011;64736;50.462;4.850;2022-11-15T13:15:00;3.78;;;1.98;;
76039;SDS011;64736;50.462;4.850;2022-11-15T13:17:54;3.25;;;1.42;;
76039;SDS011;64736;50.462;4.850;2022-11-15T13:20:31;3.17;;;1.40;;
76039;SDS011;64736;50.462;4.850;2022-11-15T13:28:02;3.17;;;1.48;;
76039;SDS011;64736;50.462;4.850;2022-11-15T13:30:29;3.58;;;1.30;;
76039;SDS011;64736;50.462;4.850;2022-11-15T13:33:07;3.10;;;1.20;;
76039;SDS011;64736;50.462;4.850;2022-11-15T13:35:45;5.28;;;1.60;;
76039;SDS011;64736;50.462;4.850;2022-11-15T13:43:50;4.13;;;1.60;;
76039;SDS011;64736;50.462;4.850;2022-11-15T13:48:52;3.42;;;1.42;;
76039;SDS011;64736;50.462;4.850;2022-11-15T13:54:23;4.80;;;2.08;;
76039;SDS011;64736;50.462;4.850;2022-11-15T13:57:09;4.25;;;1.52;;
76039;SDS011;64736;50.462;4.850;2022-11-15T13:59:59;4.32;;;1.45;;
76039;SDS011;64736;50.462;4.850;2022-11-15T14:02:27;3.08;;;1.30;;
76039;SDS011;64736;50.462;4.850;2022-11-15T14:05:02;4.00;;;1.85;;
76039;SDS011;64736;50.462;4.850;2022-11-15T14:07:29;5.60;;;1.70;;
76039;SDS011;64736;50.462;4.850;2022-11-15T14:09:55;3.95;;;1.70;;
76039;SDS011;64736;50.462;4.850;2022-11-15T14:14:50;3.70;;;1.60;;
76039;SDS011;64736;50.462;4.850;2022-11-15T14:17:20;4.70;;;1.85;;
76039;SDS011;64736;50.462;4.850;2022-11-15T14:19:56;3.55;;;1.40;;
76039;SDS011;64736;50.462;4.850;2022-11-15T14:22:23;5.13;;;1.50;;
76039;SDS011;64736;50.462;4.850;2022-11-15T14:30:41;4.18;;;1.83;;
76039;SDS011;64736;50.462;4.850;2022-11-15T14:33:50;4.45;;;2.53;;
76039;SDS011;64736;50.462;4.850;2022-11-15T14:38:46;3.92;;;1.30;;
76039;SDS011;64736;50.462;4.850;2022-11-15T14:43:50;4.03;;;2.33;;
76039;SDS011;64736;50.462;4.850;2022-11-15T14:46:17;4.18;;;1.63;;
76039;SDS011;64736;50.462;4.850;2022-11-15T14:48:43;3.75;;;1.50;;
76039;SDS011;64736;50.462;4.850;2022-11-15T14:51:10;4.22;;;1.80;;
76039;SDS011;64736;50.462;4.850;2022-11-15T14:53:41;4.35;;;1.48;;
76039;SDS011;64736;50.462;4.850;2022-11-15T14:56:08;3.42;;;1.58;;
76039;SDS011;64736;50.462;4.850;2022-11-15T14:58:34;4.10;;;1.77;;
76039;SDS011;64736;50.462;4.850;2022-11-15T15:01:01;5.28;;;2.03;;
76039;SDS011;64736;50.462;4.850;2022-11-15T15:03:35;6.57;;;2.40;;
76039;SDS011;64736;50.462;4.850;2022-11-15T15:06:00;4.90;;;2.30;;
76039;SDS011;64736;50.462;4.850;2022-11-15T15:08:26;4.60;;;2.25;;
76039;SDS011;64736;50.462;4.850;2022-11-15T15:10:51;5.57;;;2.33;;
76039;SDS011;64736;50.462;4.850;2022-11-15T15:13:21;4.55;;;1.95;;
76039;SDS011;64736;50.462;4.850;2022-11-15T15:15:49;4.13;;;1.70;;
76039;SDS011;64736;50.462;4.850;2022-11-15T15:18:16;4.90;;;2.13;;
76039;SDS011;64736;50.462;4.850;2022-11-15T15:20:43;4.40;;;2.00;;
76039;SDS011;64736;50.462;4.850;2022-11-15T15:23:17;4.43;;;2.28;;
76039;SDS011;64736;50.462;4.850;2022-11-15T15:25:45;4.25;;;1.92;;
76039;SDS011;64736;50.462;4.850;2022-11-15T15:28:13;6.25;;;2.38;;
76039;SDS011;64736;50.462;4.850;2022-11-15T15:30:38;5.43;;;2.10;;
76039;SDS011;64736;50.462;4.850;2022-11-15T15:33:04;4.90;;;2.17;;
76039;SDS011;64736;50.462;4.850;2022-11-15T15:35:32;5.38;;;2.58;;
76039;SDS011;64736;50.462;4.850;2022-11-15T15:37:59;5.82;;;3.42;;
76039;SDS011;64736;50.462;4.850;2022-11-15T15:40:25;5.03;;;2.88;;
76039;SDS011;64736;50.462;4.850;2022-11-15T15:42:54;6.65;;;4.15;;
76039;SDS011;64736;50.462;4.850;2022-11-15T15:45:19;8.10;;;5.95;;
76039;SDS011;64736;50.462;4.850;2022-11-15T15:47:45;5.65;;;3.05;;
76039;SDS011;64736;50.462;4.850;2022-11-15T15:50:22;5.07;;;2.80;;
76039;SDS011;64736;50.462;4.850;2022-11-15T15:52:50;6.18;;;2.63;;
76039;SDS011;64736;50.462;4.850;2022-11-15T15:55:17;4.55;;;2.33;;
76039;SDS011;64736;50.462;4.850;2022-11-15T15:57:43;6.53;;;2.20;;
76039;SDS011;64736;50.462;4.850;2022-11-15T16:00:09;6.72;;;2.65;;
76039;SDS011;64736;50.462;4.850;2022-11-15T16:02:36;5.13;;;2.50;;
76039;SDS011;64736;50.462;4.850;2022-11-15T16:05:01;6.28;;;2.67;;
76039;SDS011;64736;50.462;4.850;2022-11-15T16:07:27;5.85;;;2.90;;
76039;SDS011;64736;50.462;4.850;2022-11-15T16:09:54;7.63;;;3.17;;
76039;SDS011;64736;50.462;4.850;2022-11-15T16:12:31;5.75;;;2.58;;
76039;SDS011;64736;50.462;4.850;2022-11-15T16:15:00;7.20;;;4.70;;
76039;SDS011;64736;50.462;4.850;2022-11-15T16:17:28;5.03;;;2.75;;
76039;SDS011;64736;50.462;4.850;2022-11-15T16:19:58;6.57;;;2.92;;
76039;SDS011;64736;50.462;4.850;2022-11-15T16:22:23;5.35;;;2.97;;
76039;SDS011;64736;50.462;4.850;2022-11-15T16:24:49;4.70;;;2.30;;
76039;SDS011;64736;50.462;4.850;2022-11-15T16:27:15;6.15;;;2.55;;
76039;SDS011;64736;50.462;4.850;2022-11-15T16:29:44;6.10;;;3.22;;
76039;SDS011;64736;50.462;4.850;2022-11-15T16:32:10;5.65;;;2.70;;
76039;SDS011;64736;50.462;4.850;2022-11-15T16:34:36;6.00;;;2.90;;
76039;SDS011;64736;50.462;4.850;2022-11-15T16:37:02;4.22;;;2.22;;
76039;SDS011;64736;50.462;4.850;2022-11-15T16:39:28;5.05;;;2.65;;
76039;SDS011;64736;50.462;4.850;2022-11-15T16:41:56;5.50;;;2.40;;
76039;SDS011;64736;50.462;4.850;2022-11-15T16:44:22;4.30;;;2.17;;
76039;SDS011;64736;50.462;4.850;2022-11-15T16:46:49;6.10;;;3.25;;
76039;SDS011;64736;50.462;4.850;2022-11-15T16:49:16;5.35;;;2.70;;
76039;SDS011;64736;50.462;4.850;2022-11-15T16:51:47;5.22;;;2.38;;
76039;SDS011;64736;50.462;4.850;2022-11-15T16:54:14;4.90;;;2.65;;
76039;SDS011;64736;50.462;4.850;2022-11-15T16:56:40;5.15;;;2.25;;
76039;SDS011;64736;50.462;4.850;2022-11-15T16:59:08;5.65;;;2.60;;
76039;SDS011;64736;50.462;4.850;2022-11-15T17:01:39;4.45;;;1.98;;
76039;SDS011;64736;50.462;4.850;2022-11-15T17:04:15;3.75;;;2.13;;
76039;SDS011;64736;50.462;4.850;2022-11-15T17:06:47;5.78;;;2.67;;
76039;SDS011;64736;50.462;4.850;2022-11-15T17:09:14;6.40;;;4.18;;
76039;SDS011;64736;50.462;4.850;2022-11-15T17:11:42;6.32;;;2.90;;
76039;SDS011;64736;50.462;4.850;2022-11-15T17:14:08;4.80;;;2.22;;
76039;SDS011;64736;50.462;4.850;2022-11-15T17:16:34;5.30;;;2.90;;
76039;SDS011;64736;50.462;4.850;2022-11-15T17:19:02;5.85;;;3.05;;
76039;SDS011;64736;50.462;4.850;2022-11-15T17:21:30;6.45;;;2.97;;
76039;SDS011;64736;50.462;4.850;2022-11-15T17:23:57;4.97;;;2.40;;
76039;SDS011;64736;50.462;4.850;2022-11-15T17:26:23;6.97;;;4.13;;
76039;SDS011;64736;50.462;4.850;2022-11-15T17:28:53;59.28;;;54.80;;
76039;SDS011;64736;50.462;4.850;2022-11-15T17:31:20;4.78;;;2.60;;
76039;SDS011;64736;50.462;4.850;2022-11-15T17:33:45;5.65;;;3.28;;
76039;SDS011;64736;50.462;4.850;2022-11-15T17:36:11;6.20;;;3.28;;
76039;SDS011;64736;50.462;4.850;2022-11-15T17:38:39;5.43;;;3.47;;
76039;SDS011;64736;50.462;4.850;2022-11-15T17:41:06;5.60;;;3.20;;
76039;SDS011;64736;50.462;4.850;2022-11-15T17:43:38;5.75;;;3.60;;